Time;durP1;ratioP1;P1;durP2;ratioP2;P2;SDS_P1;SDS_P2;PMS_P1;PMS_P2;Temp;Humidity;BMP_temperature;BMP_pressure;BME280_temperature;BME280_humidity;BME280_pressure;Samples;Min_cycle;Max_cycle;Signal;HPM_P1;HPM_P2
2023/02/10 00:01:19;;;;;;;94.07;29.17;;;4.30;90.10;;;;;;5086647;28;20028;-56
2023/02/10 00:03:45;;;;;;;88.30;29.08;;;4.30;90.20;;;;;;5103378;28;20245;-56
2023/02/10 00:06:11;;;;;;;118.85;30.88;;;4.30;90.20;;;;;;5087990;28;20035;-56
2023/02/10 00:08:36;;;;;;;101.25;29.95;;;4.30;90.20;;;;;;5109010;28;20024;-56
2023/02/10 00:11:07;;;;;;;96.32;30.02;;;4.30;90.20;;;;;;5107749;28;20036;-56
2023/02/10 00:13:33;;;;;;;83.80;28.48;;;4.30;90.20;;;;;;5107490;28;20020;-56
2023/02/10 00:15:59;;;;;;;82.75;27.40;;;4.30;90.20;;;;;;5108972;28;20028;-56
2023/02/10 00:18:25;;;;;;;91.18;28.23;;;4.20;90.20;;;;;;5090871;28;20043;-56
2023/02/10 00:20:50;;;;;;;93.38;28.60;;;4.20;90.20;;;;;;5108980;28;20024;-56
2023/02/10 00:23:16;;;;;;;90.15;28.20;;;4.10;90.20;;;;;;5107572;28;20012;-56
2023/02/10 00:25:41;;;;;;;89.53;28.63;;;4.20;90.60;;;;;;5107652;28;20024;-56
2023/02/10 00:28:07;;;;;;;76.70;27.27;;;4.10;90.30;;;;;;5107539;28;20147;-56
2023/02/10 00:30:33;;;;;;;100.53;29.30;;;4.10;90.30;;;;;;5107721;28;20126;-56
2023/02/10 00:32:58;;;;;;;81.35;27.13;;;4.10;90.30;;;;;;5108964;28;20024;-56
2023/02/10 00:35:24;;;;;;;102.47;28.83;;;4.10;90.30;;;;;;5107272;28;20024;-56
2023/02/10 00:37:49;;;;;;;82.95;27.73;;;4.10;90.30;;;;;;5108623;28;20032;-56
2023/02/10 00:40:15;;;;;;;75.75;26.05;;;4.00;90.40;;;;;;5107211;28;20157;-56
2023/02/10 00:42:41;;;;;;;88.43;26.52;;;4.10;90.40;;;;;;5107154;28;20040;-56
2023/02/10 00:45:07;;;;;;;72.05;25.83;;;4.00;90.40;;;;;;5107437;28;20091;-56
2023/02/10 00:47:32;;;;;;;75.95;25.02;;;4.00;90.40;;;;;;5106911;28;20043;-56
2023/02/10 00:49:58;;;;;;;88.82;26.30;;;4.00;90.70;;;;;;5106895;28;20034;-56
2023/02/10 00:52:23;;;;;;;66.97;25.58;;;4.00;90.40;;;;;;5106845;28;20065;-56
2023/02/10 00:54:49;;;;;;;74.57;25.25;;;4.00;90.30;;;;;;5089773;28;20107;-56
2023/02/10 00:57:14;;;;;;;84.18;25.80;;;4.00;90.40;;;;;;5106891;28;20031;-56
2023/02/10 00:59:40;;;;;;;79.68;24.42;;;3.90;90.40;;;;;;5089791;28;20028;-56
2023/02/10 01:02:06;;;;;;;73.40;25.13;;;3.90;90.40;;;;;;5108232;28;20194;-56
2023/02/10 01:04:31;;;;;;;80.75;25.58;;;3.90;90.40;;;;;;5106612;28;20050;-56
2023/02/10 01:06:57;;;;;;;65.60;25.17;;;3.90;90.40;;;;;;5089682;28;20027;-56
2023/02/10 01:09:23;;;;;;;68.90;24.88;;;3.90;90.40;;;;;;5106898;28;20042;-56
2023/02/10 01:11:48;;;;;;;92.47;25.42;;;3.90;90.40;;;;;;5106535;28;20043;-56
2023/02/10 01:14:14;;;;;;;85.10;24.63;;;3.90;90.40;;;;;;5107996;28;20024;-56
2023/02/10 01:16:39;;;;;;;71.85;24.33;;;3.80;90.40;;;;;;5106518;28;20036;-56
2023/02/10 01:19:05;;;;;;;70.38;24.80;;;3.80;90.40;;;;;;5105429;28;20468;-56
2023/02/10 01:21:31;;;;;;;61.67;24.13;;;3.80;90.40;;;;;;5106619;28;20111;-56
2023/02/10 01:23:57;;;;;;;65.07;24.98;;;3.80;90.50;;;;;;5107807;28;20032;-56
2023/02/10 01:26:22;;;;;;;70.78;24.48;;;3.80;90.50;;;;;;5106421;28;20452;-56
2023/02/10 01:28:48;;;;;;;59.60;22.05;;;3.70;90.50;;;;;;5107752;28;20108;-56
2023/02/10 01:31:15;;;;;;;64.53;23.73;;;3.70;90.50;;;;;;5106530;28;20024;-56
2023/02/10 01:33:41;;;;;;;66.32;24.40;;;3.70;90.50;;;;;;5089020;28;20055;-56
2023/02/10 01:36:08;;;;;;;58.53;22.67;;;3.70;90.50;;;;;;5106098;28;20093;-56
2023/02/10 01:38:34;;;;;;;69.20;24.25;;;3.70;90.50;;;;;;5107450;28;20106;-56
2023/02/10 01:40:59;;;;;;;57.20;22.98;;;3.70;90.50;;;;;;5106034;28;20032;-56
2023/02/10 01:43:25;;;;;;;63.90;22.17;;;3.70;90.50;;;;;;5106006;28;20020;-56
2023/02/10 01:45:50;;;;;;;63.70;22.90;;;3.70;90.50;;;;;;5107171;28;20048;-56
2023/02/10 01:48:16;;;;;;;50.83;23.02;;;3.70;90.50;;;;;;5105700;28;20028;-56
2023/02/10 01:50:46;;;;;;;51.72;22.67;;;3.60;90.50;;;;;;5088923;28;20547;-56
2023/02/10 01:53:12;;;;;;;56.33;22.92;;;3.60;90.50;;;;;;5105773;28;20092;-56
2023/02/10 01:55:38;;;;;;;58.00;24.23;;;3.60;90.50;;;;;;5105656;28;20081;-56
2023/02/10 01:58:06;;;;;;;63.35;23.45;;;3.60;90.50;;;;;;5105520;28;20028;-56
2023/02/10 02:00:31;;;;;;;54.58;22.05;;;3.50;90.50;;;;;;5088476;28;20089;-56
2023/02/10 02:02:57;;;;;;;57.67;23.02;;;3.50;90.50;;;;;;5107170;28;20024;-56
2023/02/10 02:05:33;;;;;;;51.58;24.83;;;3.50;90.60;;;;;;5105666;28;20392;-56
2023/02/10 02:08:21;;;;;;;60.42;24.05;;;3.50;90.50;;;;;;5105397;28;20043;-56
2023/02/10 02:11:11;;;;;;;52.22;24.15;;;3.50;90.50;;;;;;5088433;28;20023;-56
2023/02/10 02:13:55;;;;;;;58.65;24.40;;;3.50;90.60;;;;;;5105490;28;20045;-56
2023/02/10 02:17:17;;;;;;;57.30;25.00;;;3.50;90.60;;;;;;5107371;28;20071;-56
2023/02/10 02:20:40;;;;;;;45.60;22.88;;;3.50;90.60;;;;;;5024645;28;20463;-56
2023/02/10 02:23:15;;;;;;;62.25;24.08;;;3.50;90.60;;;;;;5023977;28;20060;-56
2023/02/10 02:25:40;;;;;;;53.33;24.00;;;3.50;90.50;;;;;;5040078;28;20036;-55
2023/02/10 02:28:11;;;;;;;59.60;25.02;;;3.40;90.50;;;;;;5104942;28;20131;-56
2023/02/10 02:30:49;;;;;;;55.83;24.88;;;3.40;90.50;;;;;;5104777;28;20065;-56
2023/02/10 02:33:22;;;;;;;56.88;24.30;;;3.40;90.60;;;;;;5106504;28;20057;-55
2023/02/10 02:36:08;;;;;;;55.38;24.92;;;3.40;90.60;;;;;;5105072;28;20095;-56
2023/02/10 02:38:40;;;;;;;49.72;23.77;;;3.40;90.60;;;;;;5104901;28;20020;-55
2023/02/10 02:41:06;;;;;;;52.58;22.80;;;3.40;90.60;;;;;;5104787;28;20039;-56
2023/02/10 02:43:31;;;;;;;50.13;24.25;;;3.30;90.60;;;;;;5104848;28;20028;-56
2023/02/10 02:46:32;;;;;;;58.90;25.17;;;3.40;90.70;;;;;;5104734;28;20038;-56
2023/02/10 02:49:20;;;;;;;53.88;24.27;;;3.40;90.70;;;;;;5023417;28;20037;-56
2023/02/10 02:52:03;;;;;;;53.97;23.38;;;3.40;90.60;;;;;;5098640;28;20047;-56
2023/02/10 02:54:32;;;;;;;49.38;23.83;;;3.30;90.60;;;;;;5104592;28;20032;-55
2023/02/10 02:57:18;;;;;;;47.05;23.67;;;3.30;90.60;;;;;;5105990;28;20042;-56
2023/02/10 03:00:21;;;;;;;56.88;24.90;;;3.30;90.60;;;;;;5106141;28;20135;-56
2023/02/10 03:02:46;;;;;;;43.75;22.73;;;3.30;90.90;;;;;;5007212;28;20097;-56
2023/02/10 03:05:21;;;;;;;43.20;23.65;;;3.30;90.60;;;;;;5055083;28;20052;-56
2023/02/10 03:07:46;;;;;;;45.43;23.17;;;3.30;90.60;;;;;;5104235;28;20095;-56
2023/02/10 03:10:12;;;;;;;45.70;23.27;;;3.30;90.70;;;;;;5087431;28;20096;-56
2023/02/10 03:12:38;;;;;;;49.45;23.17;;;3.30;90.80;;;;;;5105521;28;20059;-56
2023/02/10 03:15:03;;;;;;;42.72;21.58;;;3.30;90.80;;;;;;5105836;28;20028;-56
2023/02/10 03:17:29;;;;;;;40.08;19.75;;;3.30;90.80;;;;;;5104339;28;20031;-56
2023/02/10 03:19:54;;;;;;;42.13;20.48;;;3.30;90.90;;;;;;5104192;28;20031;-56
2023/02/10 03:22:20;;;;;;;37.65;19.90;;;3.20;90.90;;;;;;5105494;28;20032;-56
2023/02/10 03:24:45;;;;;;;40.05;20.88;;;3.20;91.00;;;;;;5104027;28;20412;-56
2023/02/10 03:27:11;;;;;;;38.60;20.58;;;3.20;91.10;;;;;;5105321;28;20024;-56
2023/02/10 03:29:36;;;;;;;40.45;20.40;;;3.20;91.10;;;;;;5104056;28;20020;-56
2023/02/10 03:32:03;;;;;;;46.30;21.40;;;3.20;91.10;;;;;;5105449;28;20032;-56
2023/02/10 03:34:29;;;;;;;40.10;20.63;;;3.20;91.20;;;;;;5105554;28;20031;-56
2023/02/10 03:36:54;;;;;;;40.63;21.17;;;3.20;91.20;;;;;;5103854;28;20020;-56
2023/02/10 03:39:20;;;;;;;39.30;21.08;;;3.20;91.20;;;;;;5103889;28;20060;-56
2023/02/10 03:41:45;;;;;;;38.40;21.27;;;3.20;91.30;;;;;;5103368;28;20052;-56
2023/02/10 03:44:11;;;;;;;40.38;21.35;;;3.20;91.40;;;;;;5103832;28;20024;-56
2023/02/10 03:46:36;;;;;;;33.83;20.45;;;3.20;91.40;;;;;;5104883;28;20032;-56
2023/02/10 03:49:03;;;;;;;41.55;21.38;;;3.20;91.40;;;;;;5105155;28;20039;-56
2023/02/10 03:51:28;;;;;;;52.35;20.23;;;3.20;91.40;;;;;;5103698;28;20089;-56
2023/02/10 03:53:54;;;;;;;43.58;21.02;;;3.20;91.50;;;;;;5103924;28;20040;-55
2023/02/10 03:56:19;;;;;;;47.08;22.20;;;3.20;91.50;;;;;;5103919;28;20088;-56
2023/02/10 03:58:45;;;;;;;39.10;22.50;;;3.20;91.40;;;;;;5103574;28;20040;-56
2023/02/10 04:01:12;;;;;;;41.45;22.70;;;3.20;91.40;;;;;;5105040;28;20028;-56
2023/02/10 04:03:38;;;;;;;40.53;20.67;;;3.20;91.30;;;;;;5103369;28;20071;-56
2023/02/10 04:06:04;;;;;;;45.13;21.98;;;3.10;91.30;;;;;;5105187;28;20031;-56
2023/02/10 04:08:29;;;;;;;45.35;22.65;;;3.10;91.40;;;;;;5104856;28;20024;-56
2023/02/10 04:10:55;;;;;;;43.97;21.90;;;3.10;91.30;;;;;;5086478;28;20463;-56
2023/02/10 04:13:20;;;;;;;34.35;20.55;;;3.10;91.30;;;;;;5104909;28;20088;-56
2023/02/10 04:15:47;;;;;;;34.05;20.80;;;3.10;91.30;;;;;;5104999;28;20394;-56
2023/02/10 04:18:13;;;;;;;33.80;20.58;;;3.10;91.30;;;;;;5103600;28;20055;-56
2023/02/10 04:20:38;;;;;;;37.65;20.52;;;3.10;91.20;;;;;;5103400;28;20024;-56
2023/02/10 04:23:04;;;;;;;36.78;20.90;;;3.10;91.20;;;;;;5103409;28;20024;-56
2023/02/10 04:25:29;;;;;;;40.92;22.45;;;3.10;91.20;;;;;;5103242;28;20061;-56
2023/02/10 04:27:55;;;;;;;33.45;20.63;;;3.00;91.10;;;;;;5104647;28;20061;-56
2023/02/10 04:30:20;;;;;;;33.92;21.00;;;3.10;91.20;;;;;;5104792;28;20028;-56
2023/02/10 04:32:46;;;;;;;44.55;22.20;;;3.00;91.10;;;;;;5104644;28;20107;-56
2023/02/10 04:35:11;;;;;;;141.07;30.42;;;3.00;91.10;;;;;;5103207;28;20119;-56
2023/02/10 04:37:37;;;;;;;91.53;27.70;;;3.00;91.10;;;;;;5103070;28;20059;-56
2023/02/10 04:40:03;;;;;;;75.93;25.55;;;3.00;91.10;;;;;;5104499;28;20032;-55
2023/02/10 04:42:31;;;;;;;67.53;24.48;;;3.00;91.10;;;;;;5104470;28;20035;-56
2023/02/10 04:44:58;;;;;;;57.03;22.95;;;3.00;91.10;;;;;;5103019;28;20066;-56
2023/02/10 04:47:25;;;;;;;53.78;23.50;;;3.00;91.10;;;;;;5104287;28;20044;-56
2023/02/10 04:49:50;;;;;;;52.65;24.48;;;3.00;91.00;;;;;;5104633;28;20044;-56
2023/02/10 04:52:16;;;;;;;50.60;23.80;;;2.90;91.00;;;;;;5106020;28;20039;-56
2023/02/10 04:54:41;;;;;;;51.80;22.38;;;2.90;91.00;;;;;;5107368;28;20028;-56
2023/02/10 04:57:07;;;;;;;54.58;25.25;;;2.90;91.00;;;;;;5106966;28;20036;-56
2023/02/10 04:59:32;;;;;;;42.17;22.55;;;2.90;91.00;;;;;;5106789;28;20039;-56
2023/02/10 05:01:58;;;;;;;48.40;21.67;;;2.90;91.00;;;;;;5106876;28;20036;-56
2023/02/10 05:04:23;;;;;;;50.30;21.98;;;2.90;91.00;;;;;;5106662;28;20454;-56
2023/02/10 05:06:49;;;;;;;44.53;21.55;;;2.90;91.00;;;;;;5106395;28;20414;-56
2023/02/10 05:09:14;;;;;;;52.33;23.25;;;2.90;91.00;;;;;;5106788;28;20473;-56
2023/02/10 05:11:41;;;;;;;43.47;21.60;;;2.90;91.00;;;;;;5106733;28;20050;-56
2023/02/10 05:14:06;;;;;;;42.83;20.95;;;2.90;90.90;;;;;;5106514;28;20016;-56
2023/02/10 05:16:32;;;;;;;48.05;21.52;;;2.90;90.80;;;;;;5107959;28;20084;-56
2023/02/10 05:18:57;;;;;;;48.25;21.80;;;2.80;90.80;;;;;;5106497;28;20028;-56
2023/02/10 05:21:23;;;;;;;44.42;22.20;;;2.80;90.80;;;;;;5106895;28;20032;-56
2023/02/10 05:23:48;;;;;;;44.72;22.15;;;2.80;90.80;;;;;;5107835;28;20074;-56
2023/02/10 05:26:14;;;;;;;55.40;21.20;;;2.80;90.90;;;;;;5106470;28;20045;-56
2023/02/10 05:28:40;;;;;;;43.78;21.90;;;2.80;90.90;;;;;;5107702;28;20024;-56
2023/02/10 05:31:06;;;;;;;36.17;20.23;;;2.80;90.90;;;;;;5107722;28;20028;-56
2023/02/10 05:33:34;;;;;;;43.00;19.80;;;2.80;90.90;;;;;;5107430;28;20024;-56
2023/02/10 05:35:59;;;;;;;45.22;21.20;;;2.80;91.00;;;;;;5107540;28;20024;-56
2023/02/10 05:38:26;;;;;;;41.47;22.10;;;2.70;91.10;;;;;;5106068;28;20024;-56
2023/02/10 05:40:51;;;;;;;41.72;20.75;;;2.70;91.20;;;;;;5107375;28;20077;-56
2023/02/10 05:43:17;;;;;;;43.15;21.50;;;2.70;91.20;;;;;;5107412;28;20175;-56
2023/02/10 05:45:45;;;;;;;51.22;21.33;;;2.70;91.20;;;;;;5105827;28;20024;-55
2023/02/10 05:48:10;;;;;;;48.60;22.02;;;2.70;91.30;;;;;;5088596;28;20028;-56
2023/02/10 05:50:36;;;;;;;41.40;20.67;;;2.70;91.40;;;;;;5105773;28;20025;-56
2023/02/10 05:53:01;;;;;;;38.70;21.00;;;2.70;91.50;;;;;;5105897;28;20017;-56
2023/02/10 05:55:27;;;;;;;53.90;20.90;;;2.70;91.60;;;;;;5105709;28;20131;-56
2023/02/10 05:57:52;;;;;;;42.33;19.58;;;2.70;91.60;;;;;;5088901;28;20114;-56
2023/02/10 06:00:18;;;;;;;40.03;19.02;;;2.70;91.60;;;;;;5088624;28;20058;-56
2023/02/10 06:02:44;;;;;;;47.47;20.48;;;2.60;91.60;;;;;;5106933;28;20095;-56
2023/02/10 06:05:10;;;;;;;38.95;18.92;;;2.60;91.60;;;;;;5106389;28;20024;-56
2023/02/10 06:07:35;;;;;;;32.85;18.23;;;2.60;91.70;;;;;;5088654;28;20124;-56
2023/02/10 06:10:01;;;;;;;38.10;18.33;;;2.60;91.70;;;;;;5105526;28;20052;-56
2023/02/10 06:12:26;;;;;;;34.15;19.33;;;2.60;91.70;;;;;;5106892;28;20126;-56
2023/02/10 06:14:52;;;;;;;32.10;18.55;;;2.60;91.60;;;;;;5105604;28;20444;-56
2023/02/10 06:17:17;;;;;;;35.38;17.73;;;2.60;91.60;;;;;;5106591;28;20043;-56
2023/02/10 06:19:43;;;;;;;37.28;18.58;;;2.60;91.70;;;;;;5106607;28;20036;-56
2023/02/10 06:22:08;;;;;;;41.28;18.63;;;2.60;91.60;;;;;;5105348;28;20032;-55
2023/02/10 06:24:34;;;;;;;46.35;19.23;;;2.60;91.60;;;;;;5105041;28;20104;-56
2023/02/10 06:26:59;;;;;;;34.63;18.67;;;2.60;91.60;;;;;;5104986;28;20047;-56
2023/02/10 06:29:25;;;;;;;39.55;19.95;;;2.60;91.50;;;;;;5106449;28;20028;-55
2023/02/10 06:31:50;;;;;;;32.20;17.58;;;2.60;91.50;;;;;;5106517;28;20376;-56
2023/02/10 06:34:16;;;;;;;36.75;19.00;;;2.50;91.60;;;;;;5104867;28;20020;-56
2023/02/10 06:36:42;;;;;;;37.10;17.70;;;2.50;91.60;;;;;;5104873;28;20039;-58
2023/02/10 06:39:07;;;;;;;34.75;17.92;;;2.50;91.50;;;;;;5106462;28;20173;-58
2023/02/10 06:41:33;;;;;;;28.45;17.45;;;2.50;91.50;;;;;;5105005;28;20028;-58
2023/02/10 06:43:58;;;;;;;30.65;18.85;;;2.50;91.50;;;;;;5105020;28;20127;-58
2023/02/10 06:46:24;;;;;;;29.67;16.60;;;2.50;91.50;;;;;;5104777;28;20043;-58
2023/02/10 06:48:50;;;;;;;35.83;17.75;;;2.50;91.50;;;;;;5104564;28;20028;-58
2023/02/10 06:51:15;;;;;;;28.38;17.45;;;2.50;91.50;;;;;;5104686;28;20075;-57
2023/02/10 06:53:42;;;;;;;32.92;17.52;;;2.50;91.50;;;;;;5104784;28;20028;-58
2023/02/10 06:56:08;;;;;;;29.05;17.88;;;2.50;91.50;;;;;;5106041;28;20050;-58
2023/02/10 06:58:33;;;;;;;31.25;16.73;;;2.50;91.40;;;;;;5104537;28;20024;-58
2023/02/10 07:01:00;;;;;;;32.10;16.30;;;2.50;91.40;;;;;;5104469;28;20024;-58
2023/02/10 07:03:26;;;;;;;34.72;17.20;;;2.40;91.40;;;;;;5106060;28;20025;-58
2023/02/10 07:05:52;;;;;;;34.08;18.30;;;2.50;91.40;;;;;;5087860;28;20024;-58
2023/02/10 07:08:17;;;;;;;26.20;16.25;;;2.40;91.40;;;;;;5104513;28;20487;-58
2023/02/10 07:10:43;;;;;;;33.85;17.73;;;2.40;91.40;;;;;;5104375;28;20484;-58
2023/02/10 07:13:09;;;;;;;26.20;15.95;;;2.40;91.40;;;;;;5105201;28;20020;-58
2023/02/10 07:15:34;;;;;;;26.77;16.38;;;2.40;91.40;;;;;;5086929;28;20464;-58
2023/02/10 07:18:00;;;;;;;26.17;16.65;;;2.40;91.40;;;;;;5105781;28;20039;-58
2023/02/10 07:20:26;;;;;;;31.85;17.65;;;2.40;91.40;;;;;;5103970;28;20115;-57
2023/02/10 07:22:51;;;;;;;32.78;16.67;;;2.40;91.60;;;;;;5103039;28;20031;-58
2023/02/10 07:25:17;;;;;;;25.50;16.33;;;2.40;91.30;;;;;;5104240;28;20028;-58
2023/02/10 07:27:43;;;;;;;26.95;16.38;;;2.40;91.30;;;;;;5105092;28;20038;-58
2023/02/10 07:30:10;;;;;;;27.23;15.80;;;2.40;91.30;;;;;;5103792;28;20047;-57
2023/02/10 07:32:35;;;;;;;28.70;15.82;;;2.40;91.30;;;;;;5103469;28;20570;-58
2023/02/10 07:35:01;;;;;;;27.58;16.35;;;2.40;91.30;;;;;;5104336;28;20016;-57
2023/02/10 07:37:27;;;;;;;24.42;15.73;;;2.40;91.30;;;;;;5103217;28;20400;-58
2023/02/10 07:39:52;;;;;;;30.42;15.27;;;2.40;91.30;;;;;;5086288;28;20114;-58
2023/02/10 07:42:18;;;;;;;33.67;15.93;;;2.40;91.30;;;;;;5102744;28;20036;-57
2023/02/10 07:44:43;;;;;;;43.45;15.95;;;2.40;91.30;;;;;;5105239;28;20032;-57
2023/02/10 07:47:10;;;;;;;40.35;15.60;;;2.40;91.40;;;;;;5103830;28;20107;-58
2023/02/10 07:49:36;;;;;;;28.00;16.42;;;2.40;91.30;;;;;;5104961;28;20107;-57
2023/02/10 07:52:01;;;;;;;39.65;15.65;;;2.40;91.30;;;;;;5103422;28;20024;-58
2023/02/10 07:54:27;;;;;;;34.85;15.32;;;2.40;91.30;;;;;;5104762;28;20430;-58
2023/02/10 07:56:53;;;;;;;36.28;16.15;;;2.40;91.30;;;;;;5103777;28;20051;-57
2023/02/10 07:59:18;;;;;;;37.05;15.48;;;2.40;91.30;;;;;;5103661;28;20028;-58
2023/02/10 08:01:45;;;;;;;38.28;15.50;;;2.40;91.30;;;;;;5103557;28;20028;-58
2023/02/10 08:04:10;;;;;;;44.13;15.88;;;2.40;91.30;;;;;;5105077;28;20066;-58
2023/02/10 08:06:36;;;;;;;40.05;16.17;;;2.40;91.30;;;;;;5094032;28;20032;-58
2023/02/10 08:09:02;;;;;;;37.53;16.73;;;2.40;91.30;;;;;;5083720;28;20039;-58
2023/02/10 08:11:27;;;;;;;40.25;15.27;;;2.40;91.30;;;;;;5083567;28;20036;-58
2023/02/10 08:13:53;;;;;;;39.05;16.23;;;2.40;91.30;;;;;;5084561;28;20028;-57
2023/02/10 08:16:18;;;;;;;41.03;16.90;;;2.30;91.30;;;;;;5091983;28;20025;-58
2023/02/10 08:18:44;;;;;;;33.65;15.88;;;2.40;91.40;;;;;;5097856;28;20074;-58
2023/02/10 08:21:09;;;;;;;45.67;16.08;;;2.40;91.40;;;;;;5104729;28;20062;-58
2023/02/10 08:23:35;;;;;;;43.40;17.08;;;2.40;91.40;;;;;;5104659;28;20012;-58
2023/02/10 08:26:09;;;;;;;62.53;18.83;;;2.40;91.40;;;;;;5099282;28;20100;-58
2023/02/10 08:28:35;;;;;;;53.00;16.42;;;2.40;91.50;;;;;;5107422;28;20012;-58
2023/02/10 08:31:01;;;;;;;52.88;16.60;;;2.40;91.50;;;;;;5090357;28;20052;-58
2023/02/10 08:33:27;;;;;;;40.83;17.05;;;2.40;91.40;;;;;;5104704;28;20028;-58
2023/02/10 08:35:53;;;;;;;134.52;28.00;;;2.40;91.40;;;;;;5086896;28;20047;-58
2023/02/10 08:38:18;;;;;;;359.63;47.20;;;2.40;91.50;;;;;;5087050;28;20070;-58
2023/02/10 08:40:44;;;;;;;203.27;37.25;;;2.40;91.60;;;;;;5087017;28;20020;-58
2023/02/10 08:43:09;;;;;;;114.97;25.20;;;2.40;91.60;;;;;;5095314;28;20269;-57
2023/02/10 08:45:37;;;;;;;89.25;19.98;;;2.40;91.60;;;;;;5107078;28;20431;-58
2023/02/10 08:48:03;;;;;;;65.78;19.98;;;2.40;91.60;;;;;;5106850;28;20152;-58
2023/02/10 08:50:28;;;;;;;73.47;21.17;;;2.40;91.60;;;;;;5108398;28;20325;-58
2023/02/10 08:52:54;;;;;;;69.70;18.60;;;2.40;91.50;;;;;;5095029;28;20032;-57
2023/02/10 08:55:19;;;;;;;169.35;33.47;;;2.40;91.60;;;;;;5086346;28;20043;-58
2023/02/10 08:57:45;;;;;;;137.70;24.88;;;2.40;91.60;;;;;;5086649;28;20071;-57
2023/02/10 09:00:11;;;;;;;245.52;39.67;;;2.40;91.70;;;;;;5087754;28;20028;-58
2023/02/10 09:02:36;;;;;;;221.80;32.42;;;2.40;91.70;;;;;;5088028;28;20032;-58
2023/02/10 09:05:02;;;;;;;114.85;23.52;;;2.50;91.70;;;;;;5086054;28;20104;-57
2023/02/10 09:07:27;;;;;;;91.40;21.42;;;2.50;91.70;;;;;;5086207;28;20409;-58
2023/02/10 09:09:53;;;;;;;81.20;21.42;;;2.50;91.70;;;;;;5089624;28;20038;-58
2023/02/10 09:12:19;;;;;;;87.85;21.45;;;2.50;91.70;;;;;;5097491;28;20025;-58
2023/02/10 09:14:44;;;;;;;117.10;22.92;;;2.50;91.70;;;;;;5098577;28;20024;-58
2023/02/10 09:17:10;;;;;;;90.45;20.08;;;2.50;91.70;;;;;;5107863;28;20047;-58
2023/02/10 09:19:36;;;;;;;101.50;22.50;;;2.50;91.70;;;;;;5090331;28;20059;-58
2023/02/10 09:22:03;;;;;;;97.82;22.83;;;2.50;91.70;;;;;;5116883;28;20024;-58
2023/02/10 09:24:28;;;;;;;97.22;21.27;;;2.50;91.80;;;;;;5107718;28;20384;-58
2023/02/10 09:26:54;;;;;;;92.78;20.83;;;2.50;91.70;;;;;;5096537;28;20039;-58
2023/02/10 09:29:20;;;;;;;84.85;21.42;;;2.50;92.00;;;;;;5095361;28;20574;-58
2023/02/10 09:31:45;;;;;;;129.27;21.30;;;2.60;91.80;;;;;;5084623;28;20097;-57
2023/02/10 09:34:11;;;;;;;94.63;22.48;;;2.50;91.80;;;;;;5083874;28;20025;-58
2023/02/10 09:36:36;;;;;;;107.82;22.60;;;2.60;91.80;;;;;;5085034;28;20107;-58
2023/02/10 09:39:02;;;;;;;70.30;20.58;;;2.60;91.90;;;;;;5083330;28;20036;-57
2023/02/10 09:41:33;;;;;;;88.05;20.75;;;2.60;91.90;;;;;;5067220;28;20035;-57
2023/02/10 09:44:11;;;;;;;83.35;20.90;;;2.60;91.80;;;;;;5086666;28;20036;-57
2023/02/10 09:46:36;;;;;;;73.03;18.98;;;2.60;91.80;;;;;;5089795;28;20117;-58
2023/02/10 09:49:14;;;;;;;94.28;21.50;;;2.60;91.90;;;;;;5101345;28;20043;-58
2023/02/10 09:51:51;;;;;;;93.32;21.30;;;2.60;91.90;;;;;;5104721;28;20028;-58
2023/02/10 09:54:17;;;;;;;102.28;21.42;;;2.70;91.90;;;;;;5106412;28;20085;-57
2023/02/10 09:56:42;;;;;;;123.82;22.90;;;2.70;92.00;;;;;;5088800;28;20127;-58
2023/02/10 09:59:12;;;;;;;94.35;21.00;;;2.70;92.10;;;;;;5087002;28;20097;-58
2023/02/10 10:01:41;;;;;;;128.10;23.10;;;2.70;92.20;;;;;;5088982;28;20029;-58
2023/02/10 10:04:13;;;;;;;79.97;21.60;;;2.80;92.20;;;;;;5081014;28;20153;-58
2023/02/10 10:06:52;;;;;;;105.03;21.67;;;2.80;92.20;;;;;;5101987;28;20028;-58
2023/02/10 10:09:43;;;;;;;213.65;32.08;;;2.80;92.50;;;;;;5105772;28;20447;-57
2023/02/10 10:12:16;;;;;;;125.65;23.70;;;2.80;92.10;;;;;;5089073;28;20028;-58
2023/02/10 10:14:43;;;;;;;88.03;21.33;;;2.90;92.10;;;;;;5105618;28;20031;-57
2023/02/10 10:17:19;;;;;;;90.80;20.23;;;2.80;92.10;;;;;;5105225;28;20047;-58
2023/02/10 10:19:57;;;;;;;84.05;20.70;;;2.90;92.40;;;;;;5104916;28;20106;-58
2023/02/10 10:22:28;;;;;;;96.38;20.65;;;2.90;92.10;;;;;;5104165;28;20044;-57
2023/02/10 10:25:31;;;;;;;87.07;19.85;;;2.90;92.10;;;;;;5105256;28;20043;-57
2023/02/10 10:28:15;;;;;;;94.15;19.48;;;2.90;92.20;;;;;;5105844;28;20040;-58
2023/02/10 10:30:45;;;;;;;86.20;20.13;;;3.00;92.20;;;;;;5105221;28;20031;-58
2023/02/10 10:33:42;;;;;;;85.20;19.02;;;3.00;92.20;;;;;;5105156;28;20061;-58
2023/02/10 10:36:16;;;;;;;74.15;18.00;;;3.00;92.20;;;;;;5087378;28;20038;-57
2023/02/10 10:38:52;;;;;;;83.10;18.42;;;3.10;92.20;;;;;;5105195;28;20079;-57
2023/02/10 10:41:18;;;;;;;97.43;20.92;;;3.00;92.10;;;;;;5080920;28;20035;-57
2023/02/10 10:43:48;;;;;;;82.25;19.27;;;3.10;92.10;;;;;;5088919;28;20350;-57
2023/02/10 10:46:26;;;;;;;80.47;17.88;;;3.10;92.20;;;;;;5084518;28;20024;-58
2023/02/10 10:48:52;;;;;;;79.07;18.65;;;3.10;92.30;;;;;;5088895;28;20032;-57
2023/02/10 10:51:17;;;;;;;103.47;19.85;;;3.10;92.30;;;;;;5092266;28;20505;-58
2023/02/10 10:53:50;;;;;;;78.57;19.45;;;3.20;92.70;;;;;;5084066;28;20009;-57
2023/02/10 10:56:30;;;;;;;75.32;17.40;;;3.20;92.50;;;;;;5088882;28;20039;-58
2023/02/10 10:58:56;;;;;;;76.35;17.58;;;3.20;92.40;;;;;;5076088;28;20025;-58
2023/02/10 11:01:36;;;;;;;79.45;17.15;;;3.20;92.30;;;;;;5083998;28;20147;-58
2023/02/10 11:04:13;;;;;;;90.63;17.85;;;3.30;92.30;;;;;;5103657;28;20073;-58
2023/02/10 11:06:39;;;;;;;76.50;17.05;;;3.30;92.20;;;;;;5085211;28;20131;-58
2023/02/10 11:09:33;;;;;;;82.45;18.15;;;3.30;92.20;;;;;;5079604;28;20071;-57
2023/02/10 11:12:36;;;;;;;67.55;18.30;;;3.30;92.10;;;;;;5083846;28;20032;-58
2023/02/10 11:15:22;;;;;;;55.80;15.82;;;3.40;92.10;;;;;;5081493;28;20020;-58
2023/02/10 11:17:48;;;;;;;72.03;16.70;;;3.40;92.00;;;;;;5084280;28;20066;-58
2023/02/10 11:20:13;;;;;;;58.28;16.02;;;3.40;91.90;;;;;;5095420;28;20449;-58
2023/02/10 11:22:39;;;;;;;82.60;18.90;;;3.40;91.90;;;;;;5102286;28;20421;-58
2023/02/10 11:25:23;;;;;;;71.72;16.60;;;3.40;91.80;;;;;;5100349;28;20067;-58
2023/02/10 11:27:55;;;;;;;78.18;16.17;;;3.40;91.90;;;;;;5100369;28;20878;-58
2023/02/10 11:30:24;;;;;;;80.15;16.02;;;3.40;91.90;;;;;;5085422;28;20053;-57
2023/02/10 11:32:49;;;;;;;76.45;15.80;;;3.40;91.90;;;;;;5113147;28;20059;-58
2023/02/10 11:35:16;;;;;;;66.35;16.38;;;3.50;91.90;;;;;;5104121;28;20093;-58
2023/02/10 11:37:43;;;;;;;80.43;17.65;;;3.50;91.80;;;;;;5103195;28;20024;-57
2023/02/10 11:40:27;;;;;;;51.03;15.18;;;3.50;91.80;;;;;;5100437;28;20032;-58
2023/02/10 11:42:55;;;;;;;58.63;14.55;;;3.50;91.80;;;;;;5103412;28;20039;-58
2023/02/10 11:45:28;;;;;;;50.20;15.27;;;3.50;91.70;;;;;;5103249;28;20044;-58
2023/02/10 11:48:04;;;;;;;89.50;16.60;;;3.60;91.70;;;;;;5098752;28;20025;-57
2023/02/10 11:50:32;;;;;;;89.07;17.42;;;3.60;91.60;;;;;;5097825;28;20024;-58
2023/02/10 11:52:57;;;;;;;77.05;16.50;;;3.60;91.60;;;;;;5098909;28;20029;-58
2023/02/10 11:55:41;;;;;;;59.55;15.60;;;3.60;91.60;;;;;;5093876;28;20476;-58
2023/02/10 12:01:39;;;;;;;72.40;16.63;;;3.60;91.60;;;;;;5086433;28;20043;-58
2023/02/10 12:04:29;;;;;;;65.38;16.85;;;3.60;91.40;;;;;;5125179;27;20489;-58
2023/02/10 12:07:17;;;;;;;56.78;15.80;;;3.70;91.70;;;;;;5100057;28;20046;-58
2023/02/10 12:10:23;;;;;;;64.72;15.32;;;3.70;91.40;;;;;;5124816;28;20059;-58
2023/02/10 12:12:57;;;;;;;97.43;16.15;;;3.70;91.30;;;;;;5016926;28;20041;-58
2023/02/10 12:15:43;;;;;;;87.00;17.95;;;3.70;91.20;;;;;;5104090;28;20472;-58
2023/02/10 12:18:37;;;;;;;63.22;16.92;;;3.80;91.30;;;;;;5103160;28;20056;-58
2023/02/10 12:21:06;;;;;;;68.28;15.13;;;3.80;91.30;;;;;;5098568;28;20035;-58
2023/02/10 12:23:43;;;;;;;66.60;15.43;;;3.80;91.30;;;;;;5094924;28;20035;-57
2023/02/10 12:26:26;;;;;;;61.22;14.27;;;3.80;91.20;;;;;;5117012;28;20032;-58
2023/02/10 12:29:11;;;;;;;66.78;15.52;;;3.90;91.20;;;;;;5076939;28;20020;-58
2023/02/10 12:32:21;;;;;;;50.30;14.85;;;3.80;91.00;;;;;;5076143;28;20058;-58
2023/02/10 12:35:10;;;;;;;56.20;15.55;;;3.90;91.10;;;;;;5026475;28;20125;-58
2023/02/10 12:37:48;;;;;;;47.05;14.98;;;3.90;90.80;;;;;;5019431;28;20085;-58
2023/02/10 12:40:14;;;;;;;59.05;15.57;;;3.90;90.80;;;;;;5084530;28;20048;-58
2023/02/10 12:43:01;;;;;;;60.65;16.25;;;4.00;90.80;;;;;;5103417;28;20356;-58
2023/02/10 12:45:35;;;;;;;75.80;16.52;;;4.00;90.70;;;;;;5102089;28;20028;-58
2023/02/10 12:48:10;;;;;;;61.95;15.25;;;4.00;90.70;;;;;;5111973;28;20495;-58
2023/02/10 12:50:50;;;;;;;38.93;13.73;;;4.00;90.60;;;;;;5104338;28;20047;-57